createdAt,value
2019-04-06T00:01:43.707Z,0.9
2019-04-06T00:07:14.515Z,0.8
2019-04-06T00:12:45.327Z,0.7
2019-04-06T00:18:16.153Z,0.8
2019-04-06T00:23:46.839Z,0.6
2019-04-06T00:29:17.601Z,0.6
2019-04-06T00:34:48.348Z,0.6
2019-04-06T00:40:19.085Z,0.5
2019-04-06T00:45:49.800Z,0.3
2019-04-06T00:51:20.436Z,0.3
2019-04-06T00:56:51.222Z,0.3
2019-04-06T01:02:21.879Z,0
2019-04-06T01:07:52.568Z,0.1
2019-04-06T01:13:23.349Z,0.1
2019-04-06T01:18:54.033Z,0.1
2019-04-06T01:24:24.759Z,-0.3
2019-04-06T01:29:55.399Z,-0.4
2019-04-06T01:35:26.143Z,-0.3
2019-04-06T01:40:56.736Z,-0.2
2019-04-06T01:46:27.462Z,-0.3
2019-04-06T01:51:58.117Z,0
2019-04-06T01:57:28.777Z,-0.1
2019-04-06T02:02:59.449Z,-0.2
2019-04-06T02:08:30.129Z,-0.3
2019-04-06T02:14:00.751Z,0
2019-04-06T02:19:31.443Z,-0.1
2019-04-06T02:25:02.150Z,-0.1
2019-04-06T02:30:32.760Z,0
2019-04-06T02:36:03.460Z,-0.4
2019-04-06T02:41:34.082Z,-0.7
2019-04-06T02:47:04.798Z,-0.9
2019-04-06T02:52:35.493Z,-1.2
2019-04-06T02:58:06.156Z,-1.1
2019-04-06T03:03:36.750Z,-1
2019-04-06T03:09:07.755Z,-1.2
2019-04-06T03:14:38.404Z,-1
2019-04-06T03:20:08.861Z,-0.7
2019-04-06T03:25:40.058Z,-0.8
2019-04-06T03:31:10.426Z,-0.7
2019-04-06T03:36:40.850Z,-0.7
2019-04-06T03:42:11.771Z,-0.6
2019-04-06T03:47:42.217Z,-0.6
2019-04-06T03:53:12.953Z,-0.7
2019-04-06T03:58:43.682Z,-0.6
2019-04-06T04:04:19.490Z,-0.4
2019-04-06T04:09:51.065Z,-0.3
2019-04-06T04:15:22.696Z,-0.3
2019-04-06T04:20:54.139Z,-0.4
2019-04-06T04:26:25.694Z,-0.4
2019-04-06T04:31:57.181Z,-0.6
2019-04-06T04:37:28.720Z,-0.6
2019-04-06T04:43:00.300Z,-0.7
2019-04-06T04:48:31.758Z,-0.8
2019-04-06T04:54:03.222Z,-0.9
2019-04-06T04:59:34.159Z,-0.9
2019-04-06T05:05:04.872Z,-0.9
2019-04-06T05:10:35.657Z,-0.9
2019-04-06T05:16:06.237Z,-0.8
2019-04-06T05:21:38.354Z,-0.8
2019-04-06T05:27:07.545Z,-0.8
2019-04-06T05:32:38.304Z,-0.8
2019-04-06T05:38:08.989Z,-0.8
2019-04-06T05:43:39.722Z,-0.7
2019-04-06T05:49:10.314Z,-0.7
2019-04-06T05:54:41.160Z,-0.8
2019-04-06T06:00:12.251Z,-0.8
2019-04-06T06:05:44.013Z,-0.8
2019-04-06T06:11:15.390Z,-0.8
2019-04-06T06:16:46.958Z,-0.8
2019-04-06T06:22:18.560Z,-0.9
2019-04-06T06:27:50.153Z,-0.8
2019-04-06T06:33:21.801Z,-0.6
2019-04-06T06:38:53.410Z,-0.6
2019-04-06T06:44:25.041Z,-0.6
2019-04-06T06:49:56.702Z,-0.6
2019-04-06T06:55:28.445Z,-0.7
2019-04-06T07:01:00.276Z,-0.5
2019-04-06T07:06:31.841Z,-0.5
2019-04-06T07:12:03.584Z,-0.4
2019-04-06T07:17:35.302Z,-0.3
2019-04-06T07:23:06.933Z,-0.3
2019-04-06T07:28:39.336Z,-0.3
2019-04-06T07:34:10.852Z,-0.2
2019-04-06T07:39:42.089Z,-0.2
2019-04-06T07:45:13.916Z,-0.1
2019-04-06T07:50:45.519Z,0
2019-04-06T07:56:17.272Z,0.3
2019-04-06T08:01:49.233Z,1
2019-04-06T08:07:21.344Z,1.3
2019-04-06T08:12:53.419Z,1.3
2019-04-06T08:18:25.660Z,1.9
2019-04-06T08:23:57.938Z,2.1
2019-04-06T08:29:30.273Z,1.8
2019-04-06T08:51:40.005Z,2.8
2019-04-06T08:57:12.575Z,3.2
2019-04-06T09:02:45.223Z,3.1
2019-04-06T09:08:18.004Z,3.4
2019-04-06T09:13:50.753Z,3.7
2019-04-06T09:19:23.384Z,3.9
2019-04-06T09:24:56.304Z,4.8
2019-04-06T09:30:29.343Z,4.3
2019-04-06T09:36:02.466Z,4.3
2019-04-06T09:41:34.599Z,4.9
2019-04-06T09:47:07.356Z,4.4
2019-04-06T09:52:39.466Z,4.8
2019-04-06T09:58:11.836Z,4.8
2019-04-06T10:03:44.342Z,5
2019-04-06T10:09:21.480Z,5.8
2019-04-06T10:14:54.064Z,5.7
2019-04-06T10:20:26.693Z,5.7
2019-04-06T10:25:59.384Z,5.8
2019-04-06T10:31:32.121Z,6.1
2019-04-06T10:37:04.760Z,6.2
2019-04-06T10:42:37.423Z,6.2
2019-04-06T10:48:10.089Z,6.2
2019-04-06T10:53:42.850Z,6.4
2019-04-06T10:59:15.494Z,6.5
2019-04-06T11:04:48.290Z,6.8
2019-04-06T11:10:21.250Z,6.7
2019-04-06T11:15:53.897Z,7.3
2019-04-06T11:21:26.794Z,7
2019-04-06T11:26:59.747Z,7.5
2019-04-06T11:32:33.044Z,7.5
2019-04-06T11:38:05.891Z,8
2019-04-06T11:43:38.955Z,8.2
2019-04-06T11:49:12.423Z,8.6
2019-04-06T11:54:45.469Z,8.8
2019-04-06T12:00:24.976Z,9.3
2019-04-06T12:05:52.095Z,9.1
2019-04-06T12:11:25.823Z,9.4
2019-04-06T12:16:59.406Z,9.8
2019-04-06T12:22:33.106Z,9.4
2019-04-06T12:28:06.942Z,10.2
2019-04-06T12:33:40.927Z,10.4
2019-04-06T12:39:15.120Z,10.5
2019-04-06T12:44:48.768Z,10.6
2019-04-06T12:50:22.770Z,10.6
2019-04-06T12:55:56.791Z,10.4
2019-04-06T13:01:30.964Z,10.7
2019-04-06T13:07:05.292Z,11.2
2019-04-06T13:12:39.981Z,11.4
2019-04-06T13:18:14.006Z,11.8
2019-04-06T13:23:48.568Z,11.7
2019-04-06T13:29:22.871Z,11.6
2019-04-06T13:34:58.060Z,11.9
2019-04-06T13:40:36.399Z,11.8
2019-04-06T13:46:11.181Z,12.6
2019-04-06T13:51:46.801Z,12.6
2019-04-06T13:57:19.874Z,12
2019-04-06T14:02:53.894Z,12
2019-04-06T14:08:27.942Z,12.5
2019-04-06T14:14:02.419Z,12.7
2019-04-06T14:19:41.558Z,12.8
2019-04-06T14:25:15.968Z,12.5
2019-04-06T14:30:50.458Z,12.7
2019-04-06T14:36:25.049Z,12.9
2019-04-06T14:41:59.677Z,12.8
2019-04-06T14:47:34.117Z,12.8
2019-04-06T14:53:08.637Z,12.7
2019-04-06T14:58:47.465Z,12.5
2019-04-06T15:04:21.407Z,12.3
2019-04-06T15:09:55.409Z,12.5
2019-04-06T15:15:28.801Z,12.4
2019-04-06T15:21:02.284Z,12.5
2019-04-06T15:26:35.756Z,12.5
2019-04-06T15:32:09.320Z,12.6
2019-04-06T15:37:42.807Z,12.8
2019-04-06T15:43:18.703Z,12.9
2019-04-06T15:48:49.897Z,13
2019-04-06T15:54:23.509Z,13
2019-04-06T15:59:58.570Z,13
2019-04-06T16:05:30.339Z,12.8
2019-04-06T16:11:03.704Z,12.8
2019-04-06T16:16:37.027Z,12.9
2019-04-06T16:22:10.386Z,12.6
2019-04-06T16:27:43.774Z,12.6
2019-04-06T16:33:17.054Z,12.5
2019-04-06T16:38:50.665Z,12.4
2019-04-06T16:44:23.600Z,12.2
2019-04-06T16:49:56.750Z,12.2
2019-04-06T16:55:30.162Z,11.9
2019-04-06T17:01:04.154Z,11.7
2019-04-06T17:06:37.205Z,11.7
2019-04-06T17:12:10.102Z,11.3
2019-04-06T17:17:44.344Z,11.4
2019-04-06T17:23:17.140Z,11.4
2019-04-06T17:28:49.962Z,11.2
2019-04-06T17:34:23.088Z,11.2
2019-04-06T17:39:56.154Z,11.4
2019-04-06T17:45:30.211Z,11.5
2019-04-06T17:51:01.364Z,11.4
2019-04-06T17:56:33.435Z,11.3
2019-04-06T18:02:05.907Z,11
2019-04-06T18:07:37.681Z,10.9
2019-04-06T18:13:09.241Z,10.9
2019-04-06T18:18:41.081Z,10.8
2019-04-06T18:24:13.206Z,10.7
2019-04-06T18:29:45.359Z,10.5
2019-04-06T18:35:16.750Z,9.9
2019-04-06T18:40:48.430Z,8.6
2019-04-06T18:46:20.055Z,8.7
2019-04-06T18:51:51.769Z,8.8
2019-04-06T18:57:23.189Z,7.7
2019-04-06T19:02:54.673Z,8
2019-04-06T19:08:26.130Z,8.5
2019-04-06T19:13:57.704Z,8.3
2019-04-06T19:19:29.685Z,8.3
2019-04-06T19:25:01.230Z,8.4
2019-04-06T19:30:33.374Z,8.4
2019-04-06T19:36:05.700Z,8.1
2019-04-06T19:41:38.150Z,8.5
2019-04-06T19:47:10.814Z,8.3
2019-04-06T19:52:42.785Z,8.1
2019-04-06T19:58:15.293Z,7.6
2019-04-06T20:03:48.882Z,7.9
2019-04-06T20:09:19.763Z,7.2
2019-04-06T20:14:51.859Z,8.4
2019-04-06T20:20:24.072Z,8.3
2019-04-06T20:25:56.736Z,6.6
2019-04-06T20:31:28.949Z,8
2019-04-06T20:37:00.762Z,7
2019-04-06T20:42:32.951Z,7
2019-04-06T20:48:05.194Z,7.9
2019-04-06T20:53:37.522Z,7.9
2019-04-06T20:59:09.530Z,7.6
2019-04-06T21:04:42.330Z,7.3
2019-04-06T21:10:13.998Z,7.8
2019-04-06T21:15:46.109Z,7.5
2019-04-06T21:21:17.796Z,7.5
2019-04-06T21:26:49.618Z,8.1
2019-04-06T21:32:21.756Z,7.9
2019-04-06T21:37:54.241Z,7.8
2019-04-06T21:43:24.632Z,7.8
2019-04-06T21:48:56.907Z,8.7
2019-04-06T21:54:28.853Z,9.1
2019-04-06T22:00:02.085Z,9.5
2019-04-06T22:05:34.501Z,10
2019-04-06T22:11:06.192Z,8.8
2019-04-06T22:16:38.105Z,8.7
2019-04-06T22:22:09.311Z,8.6
2019-04-06T22:27:41.341Z,9.8
2019-04-06T22:33:13.893Z,9.7
2019-04-06T22:38:46.209Z,9.1
2019-04-06T22:44:19.894Z,8.3
2019-04-06T22:49:51.039Z,8
2019-04-06T22:55:23.206Z,8.3
2019-04-06T23:00:55.521Z,7.4
2019-04-06T23:06:26.841Z,7.6
2019-04-06T23:11:58.341Z,7.2
2019-04-06T23:17:29.983Z,6.9
2019-04-06T23:23:02.183Z,6.8
2019-04-06T23:28:33.102Z,6.7
2019-04-06T23:34:04.393Z,6.9
2019-04-06T23:39:35.808Z,6
2019-04-06T23:45:07.950Z,6.8
2019-04-06T23:50:39.518Z,7.2
2019-04-06T23:56:10.835Z,7.6
